Aeroporto :
LOGIN :

Iscrizione | Disclaimer

   EN    FR    IT 

 










Sommario :    VFR   VFR Marginale   IFR   IFR Intensivo   IFR Molto Intensivo
Visibilità : 
Base nubi : 
>= 8 km
>= 3000ft
5 / 8 km
1000 / 3000 ft
1500m / 5 km
500 / 1000 ft
800 / 1500m
200 / 500 ft
< 800m
< 200 ft
Simboli :   Temporali  Nebbia  Neve Forte  Precipitazioni Forti  Vento > 20 kt
SIGMETs :   Varie  Temporali  Ghiacco  Turbolenza  Onda orograficha  Ceneri Vulcaniche







- Altitudine del aeroporto : 512 ft
- Codice IATA : URO
- Carte del aeroporto


LFOP - Rouen Vallée de Seine

ULTIMO METAR :
  • 230330Z AUTO 02005KT 4800 BR ////// 06/06 Q1029

METARs OBSOLETI :
  • 230300Z AUTO 01005KT 340V040 4400 BR ////// 06/06 Q1029
  • 230230Z AUTO 36005KT 1000 R22/1000U BCFG ////// 06/06 Q1029
  • 230200Z AUTO 01005KT 0900 0800 R22/1000D FG ////// 06/06 Q1029
  • 230130Z AUTO 35005KT 0550 R22/0650N FG ////// 06/06 Q1029

TAF TAF LFOP
Valido dal 22 a 18 ore il 23 a 18 ore UTC


221700Z 2218/2318 VRB02KT CAVOK
BECMG 2221/2224 0500 FG VV///
PROB40 2300/2304 0200 FG VV///
BECMG 2304/2307 6000 NSW OVC020
BECMG 2314/2316 02010KT
ATIS : +33 2 35 80 80 34
Met : +33 2 32 86 52 80
Nessun NOTAM noto per questo aeroporto.



MetMap, La meteo Aeronautica in un colpo d'occhio ! - Copyright ORBIFLY Dicembre 2007 - Disclaimer

ORBIFLY MET'MAP TEAM :

Programmazione e sviluppo : Alexandra Zaïnal
Concezione e sviluppo : Baudouin d'Aumeries
Co-Programmazione e sviluppo : Marc-Olivier Méhu
Supporto tecnico e logistico : Manuel Goepfert
Aiuto per la traduzione : Arnaldo La Scala

Contatto : metmap@orbifly.com




FONTI E CREDITI :

   NOAA